Time;durP1;ratioP1;P1;durP2;ratioP2;P2;SDS_P1;SDS_P2;PMS_P1;PMS_P2;Temp;Humidity;BMP_temperature;BMP_pressure;BME280_temperature;BME280_humidity;BME280_pressure;Samples;Min_cycle;Max_cycle;Signal;HPM_P1;HPM_P2
2023/12/15 00:00:14;;;;;;;8.18;4.50;;;;;;;;;;5052670;28;20086;-69
2023/12/15 00:02:40;;;;;;;6.05;4.20;;;;;;;;;;5053891;28;20033;-69
2023/12/15 00:05:06;;;;;;;7.35;4.10;;;;;;;;;;5052555;28;20471;-69
2023/12/15 00:07:31;;;;;;;9.57;5.43;;;;;;;;;;5052463;28;20036;-69
2023/12/15 00:09:58;;;;;;;9.43;6.15;;;;;;;;;;5052444;28;20107;-69
2023/12/15 00:12:23;;;;;;;8.75;4.93;;;;;;;;;;5052387;28;20044;-69
2023/12/15 00:14:49;;;;;;;7.95;4.32;;;;;;;;;;5053152;28;20458;-69
2023/12/15 00:17:14;;;;;;;9.73;4.70;;;;;;;;;;5053185;28;20028;-69
2023/12/15 00:19:40;;;;;;;9.80;5.18;;;;;;;;;;5053068;28;20021;-69
2023/12/15 00:22:05;;;;;;;8.85;4.50;;;;;;;;;;5052877;28;20040;-69
2023/12/15 00:24:30;;;;;;;9.20;4.95;;;;;;;;;;5052840;28;20119;-69
2023/12/15 00:26:58;;;;;;;9.95;4.93;;;;;;;;;;5052634;28;20029;-69
2023/12/15 00:29:25;;;;;;;9.98;5.80;;;;;;;;;;5052986;28;20348;-68
2023/12/15 00:31:50;;;;;;;8.48;4.47;;;;;;;;;;5052799;28;20096;-69
2023/12/15 00:34:15;;;;;;;9.68;4.68;;;;;;;;;;5052785;28;20117;-69
2023/12/15 00:36:41;;;;;;;10.35;5.07;;;;;;;;;;5051454;28;20088;-69
2023/12/15 00:39:06;;;;;;;9.02;4.80;;;;;;;;;;5052733;28;20429;-69
2023/12/15 00:41:32;;;;;;;7.45;4.55;;;;;;;;;;5052516;28;20493;-69
2023/12/15 00:43:57;;;;;;;8.30;4.75;;;;;;;;;;5052515;28;20036;-69
2023/12/15 00:46:23;;;;;;;9.10;4.63;;;;;;;;;;5052147;28;20025;-68
2023/12/15 00:48:48;;;;;;;8.85;4.88;;;;;;;;;;5052601;28;20375;-69
2023/12/15 00:51:13;;;;;;;8.55;4.65;;;;;;;;;;5052736;28;20029;-69
2023/12/15 00:53:39;;;;;;;10.75;4.97;;;;;;;;;;5052890;28;20091;-68
2023/12/15 00:56:05;;;;;;;9.02;5.53;;;;;;;;;;5052561;28;20432;-68
2023/12/15 00:58:31;;;;;;;9.85;6.32;;;;;;;;;;5052419;28;20035;-69
2023/12/15 01:00:57;;;;;;;12.35;6.93;;;;;;;;;;5052506;28;20108;-68
2023/12/15 01:03:22;;;;;;;13.43;7.32;;;;;;;;;;5070867;28;20055;-69
2023/12/15 01:05:50;;;;;;;9.50;6.20;;;;;;;;;;5072590;28;20021;-68
2023/12/15 01:08:15;;;;;;;10.07;5.53;;;;;;;;;;5072507;28;20397;-68
2023/12/15 01:10:40;;;;;;;9.70;5.45;;;;;;;;;;5055931;28;20517;-68
2023/12/15 01:13:06;;;;;;;10.48;5.40;;;;;;;;;;5052454;28;20454;-69
2023/12/15 01:15:32;;;;;;;13.13;8.43;;;;;;;;;;5052373;28;20577;-68
2023/12/15 01:17:58;;;;;;;15.57;9.38;;;;;;;;;;5052405;28;20068;-68
2023/12/15 01:20:23;;;;;;;13.27;7.05;;;;;;;;;;5052425;28;20049;-68
2023/12/15 01:22:48;;;;;;;11.55;7.05;;;;;;;;;;5052138;28;20100;-68
2023/12/15 01:25:14;;;;;;;11.95;6.90;;;;;;;;;;5052113;28;20425;-68
2023/12/15 01:27:39;;;;;;;12.15;7.10;;;;;;;;;;5052289;28;20031;-68
2023/12/15 01:30:06;;;;;;;11.00;6.50;;;;;;;;;;5052173;28;20028;-68
2023/12/15 01:32:31;;;;;;;15.27;8.05;;;;;;;;;;5051983;28;20512;-68
2023/12/15 01:34:57;;;;;;;20.73;8.63;;;;;;;;;;5052148;28;20025;-68
2023/12/15 01:37:22;;;;;;;22.92;10.95;;;;;;;;;;5050964;28;20090;-68
2023/12/15 01:39:48;;;;;;;15.15;8.88;;;;;;;;;;5051993;28;20094;-68
2023/12/15 01:42:13;;;;;;;17.63;8.65;;;;;;;;;;5051934;28;20017;-68
2023/12/15 01:44:40;;;;;;;14.00;8.27;;;;;;;;;;5051876;28;20076;-68
2023/12/15 01:47:08;;;;;;;14.65;8.27;;;;;;;;;;5051898;28;20037;-68
2023/12/15 01:49:33;;;;;;;17.55;7.63;;;;;;;;;;5052100;28;20029;-68
2023/12/15 01:51:58;;;;;;;11.35;6.50;;;;;;;;;;5051976;28;20359;-68
2023/12/15 01:54:24;;;;;;;12.85;6.30;;;;;;;;;;5051623;28;20490;-68
2023/12/15 01:56:49;;;;;;;12.45;6.43;;;;;;;;;;5052049;28;20029;-68
2023/12/15 01:59:15;;;;;;;11.55;5.93;;;;;;;;;;5051922;28;20028;-68
2023/12/15 02:01:42;;;;;;;9.50;5.22;;;;;;;;;;5060081;28;20107;-68
2023/12/15 02:04:07;;;;;;;16.42;5.80;;;;;;;;;;5075522;28;20105;-68
2023/12/15 02:06:32;;;;;;;10.32;5.50;;;;;;;;;;5075469;28;20549;-68
2023/12/15 02:08:58;;;;;;;9.18;5.22;;;;;;;;;;5073528;28;20025;-68
2023/12/15 02:11:23;;;;;;;9.93;5.38;;;;;;;;;;5055400;28;20029;-68
2023/12/15 02:13:49;;;;;;;9.57;5.45;;;;;;;;;;5055470;28;20025;-68
2023/12/15 02:16:14;;;;;;;8.85;4.70;;;;;;;;;;5055348;28;20017;-68
2023/12/15 02:18:40;;;;;;;8.27;5.00;;;;;;;;;;5055189;28;20048;-68
2023/12/15 02:21:05;;;;;;;7.40;4.45;;;;;;;;;;5055292;28;20094;-68
2023/12/15 02:23:31;;;;;;;8.80;4.57;;;;;;;;;;5054884;28;20116;-69
2023/12/15 02:25:56;;;;;;;8.75;4.40;;;;;;;;;;5055013;28;20028;-68
2023/12/15 02:28:21;;;;;;;7.47;4.45;;;;;;;;;;5055284;28;20143;-68
2023/12/15 02:30:47;;;;;;;9.18;4.70;;;;;;;;;;5053598;28;20057;-68
2023/12/15 02:33:13;;;;;;;9.77;5.80;;;;;;;;;;5053849;28;20064;-68
2023/12/15 02:35:40;;;;;;;9.32;4.80;;;;;;;;;;5053809;28;20033;-68
2023/12/15 02:38:09;;;;;;;11.90;5.22;;;;;;;;;;5054966;28;20025;-68
2023/12/15 02:40:38;;;;;;;7.28;4.45;;;;;;;;;;5054849;28;20025;-68
2023/12/15 02:43:03;;;;;;;10.80;4.85;;;;;;;;;;5055096;28;20024;-69
2023/12/15 02:45:29;;;;;;;8.30;4.35;;;;;;;;;;5054942;28;20087;-68
2023/12/15 02:47:54;;;;;;;10.18;4.97;;;;;;;;;;5054676;28;20446;-68
2023/12/15 02:50:20;;;;;;;11.55;4.93;;;;;;;;;;5054732;28;20070;-69
2023/12/15 02:52:45;;;;;;;8.75;4.65;;;;;;;;;;5053947;28;20049;-68
2023/12/15 02:55:13;;;;;;;9.60;4.90;;;;;;;;;;5054859;28;20029;-68
2023/12/15 02:57:38;;;;;;;9.25;6.35;;;;;;;;;;5054742;28;20060;-68
2023/12/15 03:00:05;;;;;;;8.75;5.88;;;;;;;;;;5053191;28;20075;-69
2023/12/15 03:02:30;;;;;;;12.60;5.97;;;;;;;;;;5065799;28;20497;-69
2023/12/15 03:04:55;;;;;;;9.40;5.35;;;;;;;;;;5074219;28;20071;-68
2023/12/15 03:07:21;;;;;;;9.32;4.40;;;;;;;;;;5074492;28;20481;-69
2023/12/15 03:09:46;;;;;;;8.20;4.57;;;;;;;;;;5065637;28;20055;-69
2023/12/15 03:12:12;;;;;;;6.55;4.00;;;;;;;;;;5054244;28;20039;-69
2023/12/15 03:14:37;;;;;;;7.88;4.78;;;;;;;;;;5054298;28;20032;-69
2023/12/15 03:17:03;;;;;;;9.13;4.75;;;;;;;;;;5054393;28;20029;-70
2023/12/15 03:19:28;;;;;;;7.20;4.20;;;;;;;;;;5054108;28;20029;-69
2023/12/15 03:21:53;;;;;;;8.85;4.55;;;;;;;;;;5054231;28;20379;-69
2023/12/15 03:24:19;;;;;;;6.93;4.32;;;;;;;;;;5054065;28;20029;-69
2023/12/15 03:26:44;;;;;;;9.77;4.30;;;;;;;;;;5053982;28;20421;-69
2023/12/15 03:29:10;;;;;;;9.68;4.97;;;;;;;;;;5054058;28;20461;-70
2023/12/15 03:31:35;;;;;;;8.15;4.28;;;;;;;;;;5053827;28;20029;-70
2023/12/15 03:34:00;;;;;;;7.45;4.15;;;;;;;;;;5053708;28;20031;-69
2023/12/15 03:36:26;;;;;;;7.10;3.88;;;;;;;;;;5053807;28;20021;-69
2023/12/15 03:38:51;;;;;;;7.32;4.10;;;;;;;;;;5053775;28;20392;-69
2023/12/15 03:41:17;;;;;;;7.47;4.20;;;;;;;;;;5053830;28;20021;-70
2023/12/15 03:43:42;;;;;;;8.43;4.72;;;;;;;;;;5053580;28;20087;-69
2023/12/15 03:46:07;;;;;;;10.63;4.53;;;;;;;;;;5053572;28;20028;-69
2023/12/15 03:48:35;;;;;;;10.82;4.85;;;;;;;;;;5053215;28;20033;-69
2023/12/15 03:51:01;;;;;;;8.48;4.30;;;;;;;;;;5053580;28;20028;-69
2023/12/15 03:53:26;;;;;;;9.77;4.50;;;;;;;;;;5053125;28;20041;-69
2023/12/15 03:55:51;;;;;;;8.43;4.70;;;;;;;;;;5053678;28;20021;-70
2023/12/15 03:58:17;;;;;;;10.25;4.75;;;;;;;;;;5053492;28;20481;-69
2023/12/15 04:00:42;;;;;;;10.05;5.05;;;;;;;;;;5052050;28;20040;-69
2023/12/15 04:03:08;;;;;;;9.63;4.90;;;;;;;;;;5070156;28;20017;-68
2023/12/15 04:05:33;;;;;;;8.07;4.70;;;;;;;;;;5073347;28;20080;-68
2023/12/15 04:07:59;;;;;;;9.10;5.25;;;;;;;;;;5073385;28;20112;-68
2023/12/15 04:10:24;;;;;;;8.23;4.63;;;;;;;;;;5059500;28;20021;-68
2023/12/15 04:12:49;;;;;;;7.18;4.20;;;;;;;;;;5053109;28;20020;-68
2023/12/15 04:15:18;;;;;;;7.60;4.15;;;;;;;;;;5053224;28;20060;-68
2023/12/15 04:17:43;;;;;;;10.43;4.72;;;;;;;;;;5052796;28;20087;-68
2023/12/15 04:20:09;;;;;;;9.43;5.07;;;;;;;;;;5052994;28;20029;-68
2023/12/15 04:22:34;;;;;;;7.35;4.20;;;;;;;;;;5052166;28;20076;-68
2023/12/15 04:25:00;;;;;;;9.48;5.25;;;;;;;;;;5052962;28;20407;-68
2023/12/15 04:27:26;;;;;;;8.38;4.63;;;;;;;;;;5052996;28;20033;-68
2023/12/15 04:29:51;;;;;;;9.00;4.88;;;;;;;;;;5052821;28;20025;-68
2023/12/15 04:32:17;;;;;;;6.85;4.10;;;;;;;;;;5052663;28;20028;-68
2023/12/15 04:34:42;;;;;;;9.27;5.32;;;;;;;;;;5052696;28;20036;-68
2023/12/15 04:37:07;;;;;;;7.85;4.28;;;;;;;;;;5052857;28;20040;-68
2023/12/15 04:39:33;;;;;;;7.70;4.85;;;;;;;;;;5052379;28;20024;-68
2023/12/15 04:41:58;;;;;;;8.80;5.03;;;;;;;;;;5052684;28;20094;-68
2023/12/15 04:44:24;;;;;;;7.80;5.05;;;;;;;;;;5052706;28;20025;-68
2023/12/15 04:46:50;;;;;;;7.88;4.10;;;;;;;;;;5052154;28;20029;-68
2023/12/15 04:49:15;;;;;;;8.48;4.38;;;;;;;;;;5052577;28;20021;-67
2023/12/15 04:51:41;;;;;;;9.52;4.20;;;;;;;;;;5052593;28;20028;-67
2023/12/15 04:54:06;;;;;;;12.43;5.30;;;;;;;;;;5052057;28;20099;-68
2023/12/15 04:56:32;;;;;;;8.18;4.45;;;;;;;;;;5052204;28;20028;-67
2023/12/15 04:58:57;;;;;;;9.35;4.57;;;;;;;;;;5052552;28;20059;-68
2023/12/15 05:01:25;;;;;;;8.07;4.22;;;;;;;;;;5054160;28;20108;-68
2023/12/15 05:03:50;;;;;;;8.52;4.68;;;;;;;;;;5072474;28;20029;-68
2023/12/15 05:06:21;;;;;;;7.80;4.32;;;;;;;;;;5072463;28;20442;-68
2023/12/15 05:08:51;;;;;;;13.05;7.00;;;;;;;;;;5072229;28;20035;-68
2023/12/15 05:11:18;;;;;;;10.20;5.93;;;;;;;;;;5052452;28;20029;-68
2023/12/15 05:13:43;;;;;;;7.53;5.05;;;;;;;;;;5052483;28;20360;-68
2023/12/15 05:16:09;;;;;;;7.25;4.15;;;;;;;;;;5052147;28;20028;-68
2023/12/15 05:18:35;;;;;;;8.18;4.57;;;;;;;;;;5052300;28;20032;-68
2023/12/15 05:21:00;;;;;;;9.30;4.93;;;;;;;;;;5052290;28;20047;-68
2023/12/15 05:23:26;;;;;;;8.25;4.85;;;;;;;;;;5052212;28;20036;-68
2023/12/15 05:25:52;;;;;;;8.32;4.30;;;;;;;;;;5052367;28;20486;-68
2023/12/15 05:28:17;;;;;;;30.65;15.75;;;;;;;;;;5052407;28;20036;-69
2023/12/15 05:30:43;;;;;;;37.85;19.77;;;;;;;;;;5051806;28;20033;-68
2023/12/15 05:33:08;;;;;;;10.52;6.20;;;;;;;;;;5053412;28;20474;-68
2023/12/15 05:35:34;;;;;;;12.50;5.32;;;;;;;;;;5056163;28;20029;-69
2023/12/15 05:37:59;;;;;;;9.05;4.43;;;;;;;;;;5056099;28;20413;-69
2023/12/15 05:40:25;;;;;;;7.63;4.13;;;;;;;;;;5055893;28;20029;-69
2023/12/15 05:42:50;;;;;;;8.48;4.65;;;;;;;;;;5055955;28;20501;-69
2023/12/15 05:45:16;;;;;;;9.48;4.63;;;;;;;;;;5055717;28;20033;-69
2023/12/15 05:47:41;;;;;;;8.05;4.35;;;;;;;;;;5055724;28;20029;-69
2023/12/15 05:50:07;;;;;;;9.18;5.05;;;;;;;;;;5055850;28;20021;-68
2023/12/15 05:52:33;;;;;;;8.98;5.00;;;;;;;;;;5055573;28;20025;-68
2023/12/15 05:54:58;;;;;;;9.73;5.47;;;;;;;;;;5055958;28;20427;-68
2023/12/15 05:57:24;;;;;;;8.48;5.18;;;;;;;;;;5055721;28;20082;-68
2023/12/15 05:59:50;;;;;;;11.38;5.00;;;;;;;;;;5055315;28;20347;-68
2023/12/15 06:02:15;;;;;;;7.82;4.80;;;;;;;;;;5063219;28;20047;-70
2023/12/15 06:04:41;;;;;;;8.20;4.95;;;;;;;;;;5075489;28;20544;-68
2023/12/15 06:07:06;;;;;;;8.73;4.95;;;;;;;;;;5075762;28;20029;-68
2023/12/15 06:09:31;;;;;;;7.50;4.25;;;;;;;;;;5069066;28;20911;-69
2023/12/15 06:11:57;;;;;;;12.35;6.45;;;;;;;;;;5055057;28;20036;-69
2023/12/15 06:14:22;;;;;;;12.40;4.70;;;;;;;;;;5055229;28;20021;-69
2023/12/15 06:16:48;;;;;;;8.25;4.60;;;;;;;;;;5055121;28;20423;-69
2023/12/15 06:19:14;;;;;;;8.52;4.40;;;;;;;;;;5055511;28;20096;-68
2023/12/15 06:21:40;;;;;;;10.68;4.70;;;;;;;;;;5055254;28;20119;-68
2023/12/15 06:24:05;;;;;;;8.65;5.00;;;;;;;;;;5054760;28;20178;-69
2023/12/15 06:26:31;;;;;;;10.80;5.25;;;;;;;;;;5055075;28;20052;-68
2023/12/15 06:28:57;;;;;;;9.05;4.82;;;;;;;;;;5054977;28;20029;-68
2023/12/15 06:31:28;;;;;;;8.20;4.78;;;;;;;;;;5054923;28;20029;-68
2023/12/15 06:33:54;;;;;;;11.85;4.97;;;;;;;;;;5055328;28;20363;-68
2023/12/15 06:36:19;;;;;;;9.38;5.60;;;;;;;;;;5054911;28;20025;-68
2023/12/15 06:38:45;;;;;;;8.63;4.50;;;;;;;;;;5054991;28;20143;-69
2023/12/15 06:41:13;;;;;;;12.55;5.57;;;;;;;;;;5055199;28;20032;-68
2023/12/15 06:43:43;;;;;;;9.32;4.90;;;;;;;;;;5054659;28;20025;-69
2023/12/15 06:46:10;;;;;;;10.27;5.57;;;;;;;;;;5054071;28;20023;-69
2023/12/15 06:48:35;;;;;;;10.70;5.72;;;;;;;;;;5054456;28;20029;-68
2023/12/15 06:51:01;;;;;;;12.07;5.85;;;;;;;;;;5054753;28;20513;-69
2023/12/15 06:53:26;;;;;;;15.32;7.40;;;;;;;;;;5054226;28;20048;-69
2023/12/15 06:55:52;;;;;;;11.48;5.60;;;;;;;;;;5053472;28;20435;-69
2023/12/15 06:58:18;;;;;;;11.63;5.90;;;;;;;;;;5054576;28;20056;-69
2023/12/15 07:00:43;;;;;;;16.40;6.82;;;;;;;;;;5054313;28;20036;-68
2023/12/15 07:03:09;;;;;;;16.13;7.10;;;;;;;;;;5070910;28;20115;-69
2023/12/15 07:05:35;;;;;;;10.45;5.55;;;;;;;;;;5073261;28;20032;-68
2023/12/15 07:08:01;;;;;;;9.20;4.47;;;;;;;;;;5075567;28;20470;-69
2023/12/15 07:10:26;;;;;;;16.27;5.93;;;;;;;;;;5060840;28;20028;-69
2023/12/15 07:12:51;;;;;;;9.57;4.60;;;;;;;;;;5054741;28;20465;-68
2023/12/15 07:15:17;;;;;;;10.02;5.32;;;;;;;;;;5054458;28;20409;-68
2023/12/15 07:17:43;;;;;;;11.45;5.50;;;;;;;;;;5054352;28;20470;-67
2023/12/15 07:20:09;;;;;;;10.90;5.88;;;;;;;;;;5054193;28;20025;-67
2023/12/15 07:22:34;;;;;;;12.68;6.32;;;;;;;;;;5054006;28;20017;-68
2023/12/15 07:25:00;;;;;;;10.73;5.57;;;;;;;;;;5054028;28;20025;-68
2023/12/15 07:27:26;;;;;;;11.95;5.53;;;;;;;;;;5053758;28;20194;-68
2023/12/15 07:29:52;;;;;;;12.32;5.03;;;;;;;;;;5053788;28;20472;-68
2023/12/15 07:32:18;;;;;;;8.90;5.30;;;;;;;;;;5053939;28;20033;-68
2023/12/15 07:34:43;;;;;;;9.82;4.90;;;;;;;;;;5053795;28;20372;-68
2023/12/15 07:37:09;;;;;;;8.15;4.97;;;;;;;;;;5053899;28;20052;-68
2023/12/15 07:39:34;;;;;;;12.88;5.70;;;;;;;;;;5068129;28;20021;-67
2023/12/15 07:41:59;;;;;;;10.15;5.50;;;;;;;;;;5065182;28;20031;-68
2023/12/15 07:44:25;;;;;;;11.52;6.10;;;;;;;;;;5063114;28;20029;-69
2023/12/15 07:46:53;;;;;;;9.57;4.75;;;;;;;;;;5062331;28;20032;-69
2023/12/15 07:49:19;;;;;;;11.57;5.78;;;;;;;;;;5069647;28;20051;-69
2023/12/15 07:51:45;;;;;;;9.80;4.50;;;;;;;;;;5055370;28;20382;-70
2023/12/15 07:54:11;;;;;;;11.60;6.18;;;;;;;;;;5061363;28;20051;-70
2023/12/15 07:56:36;;;;;;;10.90;4.80;;;;;;;;;;5060149;28;20021;-69
2023/12/15 07:59:02;;;;;;;12.10;5.85;;;;;;;;;;5066328;28;20028;-70
2023/12/15 08:01:27;;;;;;;8.98;4.78;;;;;;;;;;5064817;28;20387;-69
2023/12/15 08:03:53;;;;;;;12.50;5.85;;;;;;;;;;5060435;28;20119;-70
2023/12/15 08:06:19;;;;;;;12.52;6.00;;;;;;;;;;5063483;28;20044;-69
2023/12/15 08:08:46;;;;;;;12.80;5.95;;;;;;;;;;5066315;28;20040;-70
2023/12/15 08:11:13;;;;;;;12.95;6.20;;;;;;;;;;5059016;28;20470;-69
2023/12/15 08:13:40;;;;;;;10.85;5.82;;;;;;;;;;5072762;28;20055;-68
2023/12/15 08:16:07;;;;;;;10.70;5.68;;;;;;;;;;5072891;28;20033;-68
2023/12/15 08:18:32;;;;;;;11.85;5.82;;;;;;;;;;5066410;28;20087;-69
2023/12/15 08:20:59;;;;;;;13.48;6.15;;;;;;;;;;5052717;28;20025;-69
2023/12/15 08:23:25;;;;;;;11.30;5.43;;;;;;;;;;5052714;28;20021;-68
2023/12/15 08:25:50;;;;;;;12.48;6.45;;;;;;;;;;5052594;28;20070;-69
2023/12/15 08:28:18;;;;;;;11.95;6.80;;;;;;;;;;5052317;28;20021;-69
2023/12/15 08:30:44;;;;;;;10.60;5.85;;;;;;;;;;5052522;28;20032;-68
2023/12/15 08:33:09;;;;;;;14.15;5.90;;;;;;;;;;5052834;28;20029;-69
2023/12/15 08:35:35;;;;;;;11.85;6.55;;;;;;;;;;5051801;28;20043;-68
2023/12/15 08:38:00;;;;;;;11.02;5.90;;;;;;;;;;5052525;28;20033;-69
2023/12/15 08:40:25;;;;;;;12.60;6.55;;;;;;;;;;5052437;28;20056;-69
2023/12/15 08:42:51;;;;;;;13.88;6.85;;;;;;;;;;5052179;28;20025;-68
2023/12/15 08:45:17;;;;;;;9.65;5.28;;;;;;;;;;5052449;28;20546;-68
2023/12/15 08:47:42;;;;;;;9.43;5.53;;;;;;;;;;5052333;28;20025;-68
2023/12/15 08:50:08;;;;;;;11.80;6.25;;;;;;;;;;5052519;28;20040;-68
2023/12/15 08:52:33;;;;;;;10.85;5.78;;;;;;;;;;5052018;28;20017;-68
2023/12/15 08:54:59;;;;;;;10.27;5.95;;;;;;;;;;5052160;28;20024;-68
2023/12/15 08:57:25;;;;;;;9.07;5.32;;;;;;;;;;5052364;28;20175;-67
2023/12/15 08:59:51;;;;;;;12.02;6.43;;;;;;;;;;5051539;28;20025;-67
2023/12/15 09:02:16;;;;;;;9.30;5.43;;;;;;;;;;5058209;28;20437;-68
2023/12/15 09:04:43;;;;;;;12.85;5.78;;;;;;;;;;5050653;28;20425;-69
2023/12/15 09:07:08;;;;;;;11.73;5.90;;;;;;;;;;5050910;28;20478;-68
2023/12/15 09:09:37;;;;;;;11.00;5.55;;;;;;;;;;5059129;28;20020;-68
2023/12/15 09:12:05;;;;;;;11.90;6.13;;;;;;;;;;5057433;28;20478;-68
2023/12/15 09:14:30;;;;;;;12.52;5.68;;;;;;;;;;5057615;28;20037;-68
2023/12/15 09:16:57;;;;;;;9.90;5.82;;;;;;;;;;5058711;28;20415;-68
2023/12/15 09:19:25;;;;;;;11.80;5.97;;;;;;;;;;5058863;28;20067;-68
2023/12/15 09:21:51;;;;;;;10.38;5.65;;;;;;;;;;5058516;28;20044;-69
2023/12/15 09:24:17;;;;;;;11.10;5.65;;;;;;;;;;5058191;28;20363;-68
2023/12/15 09:26:45;;;;;;;10.45;5.85;;;;;;;;;;5057379;28;20466;-69
2023/12/15 09:29:14;;;;;;;8.80;5.03;;;;;;;;;;5057123;28;20470;-68
2023/12/15 09:31:42;;;;;;;15.93;6.03;;;;;;;;;;5058569;28;20033;-68
2023/12/15 09:34:08;;;;;;;11.60;6.38;;;;;;;;;;5058652;28;20498;-68
2023/12/15 09:36:34;;;;;;;13.93;7.25;;;;;;;;;;5056960;28;20022;-68
2023/12/15 09:39:00;;;;;;;12.70;6.57;;;;;;;;;;5058440;28;20044;-68
2023/12/15 09:41:26;;;;;;;13.57;7.05;;;;;;;;;;5058566;28;20106;-68
2023/12/15 09:43:54;;;;;;;13.35;6.15;;;;;;;;;;5058409;28;20029;-68
2023/12/15 09:46:24;;;;;;;15.75;6.85;;;;;;;;;;5058607;28;20386;-68
2023/12/15 09:48:49;;;;;;;13.50;7.38;;;;;;;;;;5057292;28;20122;-68
2023/12/15 09:51:23;;;;;;;10.55;6.15;;;;;;;;;;5040147;28;20497;-68
2023/12/15 09:53:52;;;;;;;12.05;7.00;;;;;;;;;;5037130;28;20123;-68
2023/12/15 09:56:18;;;;;;;13.30;6.55;;;;;;;;;;5038606;28;20029;-69
2023/12/15 09:58:44;;;;;;;11.40;6.72;;;;;;;;;;5038458;28;20029;-68
2023/12/15 10:01:10;;;;;;;11.50;5.97;;;;;;;;;;5058277;28;20040;-68
2023/12/15 10:03:36;;;;;;;11.18;6.60;;;;;;;;;;5076583;28;20037;-67
2023/12/15 10:06:01;;;;;;;14.38;7.28;;;;;;;;;;5078570;28;20055;-67
2023/12/15 10:08:43;;;;;;;12.25;6.63;;;;;;;;;;5060374;28;20044;-68
2023/12/15 10:11:10;;;;;;;12.00;5.75;;;;;;;;;;5059074;28;20036;-68
2023/12/15 10:13:40;;;;;;;14.43;7.22;;;;;;;;;;5058351;28;20031;-68
2023/12/15 10:16:06;;;;;;;13.02;6.45;;;;;;;;;;5057233;28;20055;-68
2023/12/15 10:18:32;;;;;;;13.52;6.88;;;;;;;;;;5058584;28;20024;-68
2023/12/15 10:20:58;;;;;;;14.68;6.93;;;;;;;;;;5052738;28;20029;-68
2023/12/15 10:23:28;;;;;;;14.65;6.35;;;;;;;;;;5055166;28;20417;-68
2023/12/15 10:25:54;;;;;;;15.10;6.55;;;;;;;;;;5057212;28;20021;-69
2023/12/15 10:28:21;;;;;;;13.10;6.07;;;;;;;;;;5055026;28;20033;-69
2023/12/15 10:30:49;;;;;;;13.50;7.22;;;;;;;;;;5033760;28;20029;-69
2023/12/15 10:33:18;;;;;;;14.13;6.45;;;;;;;;;;5034975;28;20032;-68
2023/12/15 10:35:48;;;;;;;14.15;7.25;;;;;;;;;;5034739;28;20039;-69
2023/12/15 10:38:17;;;;;;;14.68;7.05;;;;;;;;;;5053417;28;20047;-68
2023/12/15 10:40:45;;;;;;;12.40;6.60;;;;;;;;;;5053490;28;20040;-69
2023/12/15 10:43:13;;;;;;;14.70;6.72;;;;;;;;;;5054602;28;20493;-68
2023/12/15 10:45:39;;;;;;;14.02;7.22;;;;;;;;;;5054799;28;20035;-68
2023/12/15 10:48:07;;;;;;;11.82;6.97;;;;;;;;;;5052988;28;20390;-68
2023/12/15 10:50:33;;;;;;;14.77;6.85;;;;;;;;;;5054521;28;20055;-68
2023/12/15 10:53:00;;;;;;;13.65;6.90;;;;;;;;;;5052591;28;20490;-68
2023/12/15 10:55:28;;;;;;;15.52;6.93;;;;;;;;;;5054582;28;20029;-68
2023/12/15 10:58:01;;;;;;;13.07;6.88;;;;;;;;;;5054523;28;20071;-68
2023/12/15 11:00:27;;;;;;;12.30;6.55;;;;;;;;;;5048072;28;20463;-68
2023/12/15 11:02:54;;;;;;;12.07;6.88;;;;;;;;;;5054868;28;20136;-68
2023/12/15 11:05:21;;;;;;;15.50;8.10;;;;;;;;;;5039124;28;20116;-68
2023/12/15 11:07:52;;;;;;;14.50;7.10;;;;;;;;;;5034404;28;20391;-68
2023/12/15 11:10:18;;;;;;;12.82;6.85;;;;;;;;;;5054051;28;20200;-68
2023/12/15 11:12:45;;;;;;;15.00;7.30;;;;;;;;;;5052669;28;20134;-68
2023/12/15 11:15:13;;;;;;;13.60;6.22;;;;;;;;;;5054162;28;20029;-69
2023/12/15 11:18:07;;;;;;;13.20;7.05;;;;;;;;;;5042077;28;20037;-69
2023/12/15 11:20:33;;;;;;;13.63;7.80;;;;;;;;;;5033597;28;20064;-68
2023/12/15 11:23:07;;;;;;;14.10;7.03;;;;;;;;;;5032783;28;20040;-68
2023/12/15 11:25:46;;;;;;;14.10;7.40;;;;;;;;;;5033400;28;20040;-69
2023/12/15 11:28:15;;;;;;;16.00;7.50;;;;;;;;;;5034020;28;20095;-68
2023/12/15 11:30:48;;;;;;;16.77;7.90;;;;;;;;;;5041099;28;20533;-68
2023/12/15 11:33:32;;;;;;;18.08;8.00;;;;;;;;;;5052337;28;20037;-68
2023/12/15 11:36:03;;;;;;;16.13;8.15;;;;;;;;;;5032568;28;20048;-68
2023/12/15 11:38:30;;;;;;;15.65;6.90;;;;;;;;;;5032363;28;20025;-68
2023/12/15 11:40:57;;;;;;;16.85;7.72;;;;;;;;;;5032332;28;20091;-68
2023/12/15 11:43:24;;;;;;;13.50;7.57;;;;;;;;;;5033533;28;20035;-68
2023/12/15 11:45:51;;;;;;;16.95;7.82;;;;;;;;;;5031173;28;20438;-68
2023/12/15 11:48:17;;;;;;;15.13;7.32;;;;;;;;;;5049203;28;20025;-68
2023/12/15 11:50:47;;;;;;;18.33;8.18;;;;;;;;;;5053382;28;20331;-68
2023/12/15 11:53:16;;;;;;;16.98;8.27;;;;;;;;;;5052926;28;20091;-68
2023/12/15 11:55:44;;;;;;;18.95;8.95;;;;;;;;;;5035527;28;20589;-68
2023/12/15 11:58:10;;;;;;;19.65;7.53;;;;;;;;;;5051736;28;20036;-68
2023/12/15 12:00:37;;;;;;;17.50;8.32;;;;;;;;;;5046478;28;20475;-68
2023/12/15 12:03:05;;;;;;;15.68;7.57;;;;;;;;;;5051940;28;20104;-68
2023/12/15 12:05:32;;;;;;;21.98;9.05;;;;;;;;;;5034559;28;20029;-68
2023/12/15 12:08:02;;;;;;;16.85;9.27;;;;;;;;;;5018544;28;20017;-68
2023/12/15 12:10:32;;;;;;;15.48;8.13;;;;;;;;;;5052848;28;20021;-68
2023/12/15 12:12:59;;;;;;;;;;;;;;;;;;5052092;28;20044;-68
2023/12/15 12:15:27;;;;;;;18.60;8.32;;;;;;;;;;5085269;28;19923;-67
2023/12/15 12:17:53;;;;;;;18.25;8.80;;;;;;;;;;5037932;28;20108;-68
2023/12/15 12:20:20;;;;;;;19.38;9.13;;;;;;;;;;5032785;28;20176;-68
2023/12/15 12:22:46;;;;;;;19.17;9.35;;;;;;;;;;5032781;28;20447;-68
2023/12/15 12:25:15;;;;;;;22.67;10.30;;;;;;;;;;5032527;28;20498;-67
2023/12/15 12:27:41;;;;;;;21.17;9.43;;;;;;;;;;5032896;28;20036;-70
2023/12/15 12:30:14;;;;;;;20.30;9.65;;;;;;;;;;5036722;28;20045;-67
2023/12/15 12:32:40;;;;;;;22.08;10.00;;;;;;;;;;5050871;28;20395;-67
2023/12/15 12:35:06;;;;;;;22.70;11.15;;;;;;;;;;5037122;28;20034;-67
2023/12/15 12:37:33;;;;;;;21.17;9.68;;;;;;;;;;5032608;28;20029;-67
2023/12/15 12:39:59;;;;;;;18.50;8.65;;;;;;;;;;5032472;28;20022;-67
2023/12/15 12:42:28;;;;;;;19.17;9.85;;;;;;;;;;5032078;28;20028;-67
2023/12/15 12:44:54;;;;;;;24.70;10.82;;;;;;;;;;5032526;28;20104;-67
2023/12/15 12:47:19;;;;;;;21.83;10.13;;;;;;;;;;5040632;28;20122;-67
2023/12/15 12:49:46;;;;;;;19.75;8.98;;;;;;;;;;5052346;28;20135;-67
2023/12/15 12:52:12;;;;;;;19.67;9.30;;;;;;;;;;5052174;28;20029;-69
2023/12/15 12:54:38;;;;;;;21.63;9.52;;;;;;;;;;5052139;28;20045;-67
2023/12/15 12:57:03;;;;;;;20.92;10.25;;;;;;;;;;5052491;28;20036;-67
2023/12/15 12:59:29;;;;;;;22.08;9.38;;;;;;;;;;5051974;28;20025;-67
2023/12/15 13:01:56;;;;;;;18.60;9.38;;;;;;;;;;5058333;28;20025;-67
2023/12/15 13:04:22;;;;;;;19.33;9.70;;;;;;;;;;5072372;28;20029;-67
2023/12/15 13:06:48;;;;;;;23.63;9.70;;;;;;;;;;5072216;28;20033;-67
2023/12/15 13:09:18;;;;;;;22.73;10.35;;;;;;;;;;5056151;28;20071;-67
2023/12/15 13:11:47;;;;;;;24.30;11.00;;;;;;;;;;5052148;28;20496;-67
2023/12/15 13:14:13;;;;;;;23.33;10.20;;;;;;;;;;5051867;28;20501;-67
2023/12/15 13:16:38;;;;;;;21.92;9.85;;;;;;;;;;5052138;28;20017;-67
2023/12/15 13:19:05;;;;;;;26.30;10.73;;;;;;;;;;5052133;28;20021;-67
2023/12/15 13:21:30;;;;;;;15.80;8.02;;;;;;;;;;5051897;28;20024;-68
2023/12/15 13:23:56;;;;;;;21.75;10.30;;;;;;;;;;5051994;28;20059;-67
2023/12/15 13:26:22;;;;;;;23.00;9.40;;;;;;;;;;5051996;28;20447;-67
2023/12/15 13:28:48;;;;;;;27.08;10.98;;;;;;;;;;5051707;28;20434;-67
2023/12/15 13:31:13;;;;;;;21.67;9.02;;;;;;;;;;5051554;28;20072;-67
2023/12/15 13:33:45;;;;;;;26.92;11.40;;;;;;;;;;5052202;28;20037;-68
2023/12/15 13:36:12;;;;;;;26.20;10.80;;;;;;;;;;5052763;28;20036;-68
2023/12/15 13:38:37;;;;;;;23.75;9.73;;;;;;;;;;5051974;28;20108;-68
2023/12/15 13:41:03;;;;;;;28.17;10.27;;;;;;;;;;5051974;28;20026;-68
2023/12/15 13:43:28;;;;;;;28.00;11.18;;;;;;;;;;5051510;28;20033;-68
2023/12/15 13:45:53;;;;;;;27.35;10.73;;;;;;;;;;5051971;28;20047;-68
2023/12/15 13:48:19;;;;;;;27.33;10.13;;;;;;;;;;5051665;28;20028;-68
2023/12/15 13:50:45;;;;;;;26.25;11.65;;;;;;;;;;5051665;28;20029;-68
2023/12/15 13:53:10;;;;;;;26.15;11.10;;;;;;;;;;5051231;28;20453;-68
2023/12/15 13:55:36;;;;;;;24.23;10.68;;;;;;;;;;5053733;28;20036;-68
2023/12/15 13:58:02;;;;;;;29.70;11.25;;;;;;;;;;5055415;28;20029;-68
2023/12/15 14:00:27;;;;;;;21.92;9.45;;;;;;;;;;5055532;28;20099;-68
2023/12/15 14:02:53;;;;;;;25.35;11.27;;;;;;;;;;5069440;28;20024;-68
2023/12/15 14:05:18;;;;;;;26.83;12.00;;;;;;;;;;5075198;28;20029;-68
2023/12/15 14:07:44;;;;;;;30.23;12.05;;;;;;;;;;5071532;28;20079;-68
2023/12/15 14:10:09;;;;;;;29.65;12.10;;;;;;;;;;5055342;28;20021;-68
2023/12/15 14:12:35;;;;;;;32.03;12.68;;;;;;;;;;5053795;28;20475;-68
2023/12/15 14:15:00;;;;;;;31.80;11.63;;;;;;;;;;5055254;28;20057;-68
2023/12/15 14:17:29;;;;;;;34.88;13.48;;;;;;;;;;5055209;28;20036;-68
2023/12/15 14:19:55;;;;;;;33.35;13.05;;;;;;;;;;5055086;28;20033;-68
2023/12/15 14:22:21;;;;;;;34.90;12.32;;;;;;;;;;5055184;28;20040;-68
2023/12/15 14:24:46;;;;;;;28.42;11.38;;;;;;;;;;5055014;28;20033;-68
2023/12/15 14:27:12;;;;;;;33.70;11.90;;;;;;;;;;5054753;28;20492;-68